createdAt,value
2019-04-30T00:00:06.345Z,17.10
2019-04-30T00:02:57.277Z,13.30
2019-04-30T00:05:30.550Z,13.83
2019-04-30T00:08:05.804Z,21.15
2019-04-30T00:10:41.143Z,15.98
2019-04-30T00:13:17.530Z,13.55
2019-04-30T00:15:48.052Z,14.73
2019-04-30T00:18:20.274Z,13.30
2019-04-30T00:20:52.226Z,11.83
2019-04-30T00:23:27.117Z,15.53
2019-04-30T00:26:05.123Z,16.55
2019-04-30T00:28:31.726Z,17.55
2019-04-30T00:31:05.477Z,16.32
2019-04-30T00:33:37.536Z,13.28
2019-04-30T00:36:09.569Z,17.62
2019-04-30T00:38:41.866Z,17.52
2019-04-30T00:41:15.562Z,15.65
2019-04-30T00:43:50.879Z,16.57
2019-04-30T00:46:25.012Z,14.03
2019-04-30T00:49:08.317Z,14.40
2019-04-30T00:51:31.548Z,13.30
2019-04-30T00:54:05.520Z,13.10
2019-04-30T00:56:37.289Z,17.73
2019-04-30T01:02:00.769Z,15.28
2019-04-30T01:04:37.479Z,11.53
2019-04-30T01:07:10.268Z,14.38
2019-04-30T01:09:46.572Z,18.05
2019-04-30T01:12:17.473Z,17.17
2019-04-30T01:14:50.013Z,20.75
2019-04-30T01:17:21.990Z,21.70
2019-04-30T01:19:54.648Z,20.30
2019-04-30T01:22:31.161Z,22.50
2019-04-30T01:25:08.043Z,19.37
2019-04-30T01:27:34.753Z,18.48
2019-04-30T01:30:08.711Z,19.20
2019-04-30T01:32:40.749Z,17.95
2019-04-30T01:35:13.109Z,20.52
2019-04-30T01:40:16.068Z,25.68
2019-04-30T01:47:53.069Z,15.95
2019-04-30T01:52:59.123Z,21.55
2019-04-30T01:55:53.209Z,26.27
2019-04-30T01:58:42.321Z,15.90
2019-04-30T02:01:18.993Z,21.30
2019-04-30T02:03:51.590Z,20.30
2019-04-30T02:06:23.549Z,22.07
2019-04-30T02:08:55.576Z,23.55
2019-04-30T02:11:28.886Z,24.65
2019-04-30T02:14:00.979Z,21.42
2019-04-30T02:16:32.909Z,26.07
2019-04-30T02:19:05.199Z,30.17
2019-04-30T02:21:38.565Z,24.85
2019-04-30T02:24:11.233Z,24.40
2019-04-30T02:26:43.399Z,24.43
2019-04-30T02:29:15.277Z,25.30
2019-04-30T02:31:47.318Z,24.90
2019-04-30T02:34:30.374Z,23.10
2019-04-30T02:39:43.270Z,24.77
2019-04-30T02:42:15.665Z,25.45
2019-04-30T02:44:50.404Z,22.30
2019-04-30T02:47:24.988Z,27.65
2019-04-30T02:50:11.576Z,29.65
2019-04-30T02:52:33.274Z,23.47
2019-04-30T02:55:09.472Z,33.10
2019-04-30T02:57:40.899Z,23.25
2019-04-30T03:00:20.021Z,22.90
2019-04-30T03:02:50.915Z,27.05
2019-04-30T03:05:22.855Z,23.92
2019-04-30T03:07:55.105Z,28.30
2019-04-30T03:10:30.357Z,22.58
2019-04-30T03:13:02.937Z,30.23
2019-04-30T03:15:34.958Z,26.70
2019-04-30T03:18:23.089Z,37.38
2019-04-30T03:21:12.353Z,29.32
2019-04-30T03:23:44.294Z,34.73
2019-04-30T03:26:16.314Z,24.50
2019-04-30T03:31:22.615Z,29.30
2019-04-30T03:33:54.725Z,43.92
2019-04-30T03:36:27.257Z,24.63
2019-04-30T03:38:59.991Z,30.85
2019-04-30T03:41:33.444Z,24.20
2019-04-30T03:44:17.227Z,33.55
2019-04-30T03:46:40.215Z,23.92
2019-04-30T03:49:13.376Z,30.75
2019-04-30T03:51:45.784Z,23.35
2019-04-30T03:54:19.303Z,21.75
2019-04-30T03:56:53.255Z,19.25
2019-04-30T03:59:25.235Z,23.38
2019-04-30T04:02:21.893Z,16.07
2019-04-30T04:05:20.271Z,30.90
2019-04-30T04:08:22.979Z,36.55
2019-04-30T04:11:20.735Z,33.55
2019-04-30T04:13:53.036Z,34.92
2019-04-30T04:16:25.705Z,29.45
2019-04-30T04:18:59.856Z,30.37
2019-04-30T04:21:31.327Z,35.23
2019-04-30T04:24:03.399Z,30.88
2019-04-30T04:26:35.353Z,27.77
2019-04-30T04:29:09.435Z,27.87
2019-04-30T04:31:41.104Z,26.27
2019-04-30T04:34:13.134Z,30.77
2019-04-30T04:36:45.173Z,20.72
2019-04-30T04:39:19.901Z,23.05
2019-04-30T04:41:50.984Z,27.13
2019-04-30T04:44:22.983Z,26.60
2019-04-30T04:46:55.153Z,20.90
2019-04-30T04:49:30.312Z,23.07
2019-04-30T04:52:01.334Z,22.15
2019-04-30T04:54:33.467Z,27.40
2019-04-30T04:57:14.888Z,22.58
2019-04-30T04:59:42.473Z,18.57
2019-04-30T05:02:32.811Z,21.15
2019-04-30T05:05:04.399Z,22.02
2019-04-30T05:10:09.180Z,32.00
2019-04-30T05:12:41.573Z,25.50
2019-04-30T05:15:13.997Z,23.02
2019-04-30T05:17:46.233Z,27.60
2019-04-30T05:22:52.492Z,30.10
2019-04-30T05:25:24.664Z,33.33
2019-04-30T05:27:58.586Z,26.48
2019-04-30T05:30:30.453Z,21.85
2019-04-30T05:33:02.413Z,26.20
2019-04-30T05:35:34.553Z,25.20
2019-04-30T05:38:06.653Z,21.97
2019-04-30T05:43:13.634Z,45.10
2019-04-30T05:45:45.615Z,28.60
2019-04-30T05:48:18.604Z,28.30
2019-04-30T05:50:51.822Z,25.62
2019-04-30T05:53:23.964Z,23.42
2019-04-30T05:58:29.772Z,36.70
2019-04-30T06:01:01.121Z,21.90
2019-04-30T06:03:33.497Z,25.55
2019-04-30T06:06:05.803Z,25.32
2019-04-30T06:09:06.658Z,29.23
2019-04-30T06:11:53.949Z,30.70
2019-04-30T06:14:31.893Z,19.30
2019-04-30T06:17:09.907Z,28.85
2019-04-30T06:19:42.194Z,22.32
2019-04-30T06:24:49.414Z,19.62
2019-04-30T06:27:29.097Z,19.62
2019-04-30T06:30:01.842Z,16.40
2019-04-30T06:32:35.053Z,17.60
2019-04-30T06:35:09.573Z,16.23
2019-04-30T06:37:41.773Z,12.78
2019-04-30T06:42:46.053Z,12.47
2019-04-30T06:45:19.177Z,11.83
2019-04-30T06:47:52.573Z,13.38
2019-04-30T06:50:24.643Z,16.27
2019-04-30T06:53:00.967Z,14.30
2019-04-30T06:55:31.068Z,15.63
2019-04-30T06:58:11.971Z,15.60
2019-04-30T07:00:39.976Z,17.62
2019-04-30T07:03:12.034Z,14.95
2019-04-30T07:08:39.504Z,12.43
2019-04-30T07:11:24.993Z,16.57
2019-04-30T07:13:57.054Z,13.98
2019-04-30T07:19:02.321Z,17.52
2019-04-30T07:21:36.412Z,14.95
2019-04-30T07:24:09.412Z,17.15
2019-04-30T07:26:41.674Z,13.53
2019-04-30T07:29:13.879Z,18.17
2019-04-30T07:31:46.053Z,16.35
2019-04-30T07:34:19.654Z,13.75
2019-04-30T07:37:10.880Z,17.55
2019-04-30T07:39:31.674Z,15.78
2019-04-30T07:41:59.998Z,18.17
2019-04-30T07:44:36.457Z,15.95
2019-04-30T07:47:06.253Z,23.80
2019-04-30T07:49:49.681Z,18.75
2019-04-30T07:52:12.701Z,18.05
2019-04-30T07:54:51.568Z,20.80
2019-04-30T07:57:22.243Z,13.58
2019-04-30T07:59:54.417Z,12.28
2019-04-30T08:02:29.747Z,14.55
2019-04-30T08:05:20.933Z,10.55
2019-04-30T08:07:53.022Z,10.25
2019-04-30T08:13:08.361Z,10.55
2019-04-30T08:15:30.253Z,14.45
2019-04-30T08:18:05.724Z,10.68
2019-04-30T08:20:36.153Z,14.00
2019-04-30T08:28:11.573Z,10.93
2019-04-30T08:30:43.714Z,9.13
2019-04-30T08:33:16.277Z,12.75
2019-04-30T08:35:49.898Z,10.48
2019-04-30T08:38:22.036Z,10.95
2019-04-30T08:40:58.110Z,10.00
2019-04-30T08:43:29.264Z,11.03
2019-04-30T08:46:02.023Z,12.93
2019-04-30T08:48:47.921Z,13.75
2019-04-30T08:51:09.597Z,9.55
2019-04-30T08:53:41.489Z,9.83
2019-04-30T08:56:13.641Z,11.57
2019-04-30T08:58:45.763Z,16.10
2019-04-30T09:01:19.601Z,9.03
2019-04-30T09:03:52.293Z,12.78
2019-04-30T09:06:26.334Z,14.95
2019-04-30T09:09:12.222Z,11.97
2019-04-30T09:11:53.078Z,16.40
2019-04-30T09:14:18.741Z,10.53
2019-04-30T09:16:52.020Z,11.43
2019-04-30T09:19:24.234Z,11.85
2019-04-30T09:24:30.692Z,15.10
2019-04-30T09:27:00.860Z,12.60
2019-04-30T09:29:32.953Z,12.37
2019-04-30T09:34:36.143Z,12.90
2019-04-30T09:37:08.703Z,13.68
2019-04-30T09:39:40.713Z,12.35
2019-04-30T09:42:13.723Z,10.75
2019-04-30T09:44:45.963Z,13.05
2019-04-30T09:47:20.064Z,13.28
2019-04-30T09:49:52.554Z,14.47
2019-04-30T09:52:24.583Z,13.40
2019-04-30T09:54:59.266Z,10.50
2019-04-30T09:57:31.637Z,11.50
2019-04-30T10:02:36.234Z,11.25
2019-04-30T10:07:39.893Z,11.22
2019-04-30T10:15:28.942Z,11.97
2019-04-30T10:18:01.302Z,11.85
2019-04-30T10:20:44.003Z,6.25
2019-04-30T10:23:15.957Z,8.58
2019-04-30T10:25:48.435Z,11.90
2019-04-30T10:28:20.593Z,8.88
2019-04-30T10:30:52.555Z,15.38
2019-04-30T10:35:55.613Z,7.53
2019-04-30T10:40:58.814Z,12.73
2019-04-30T10:43:32.017Z,12.18
2019-04-30T10:46:05.063Z,7.30
2019-04-30T10:48:37.193Z,13.40
2019-04-30T10:51:09.931Z,8.55
2019-04-30T10:53:43.256Z,11.03
2019-04-30T10:56:15.643Z,9.70
2019-04-30T10:58:48.032Z,11.05
2019-04-30T11:01:20.114Z,6.55
2019-04-30T11:06:38.142Z,7.28
2019-04-30T11:12:09.523Z,18.12
2019-04-30T11:14:42.131Z,8.75
2019-04-30T11:17:20.079Z,7.65
2019-04-30T11:22:31.958Z,8.83
2019-04-30T11:25:04.638Z,9.28
2019-04-30T11:27:50.171Z,6.67
2019-04-30T11:30:26.779Z,7.83
2019-04-30T11:33:08.153Z,5.40
2019-04-30T11:35:40.443Z,4.25
2019-04-30T11:38:12.473Z,5.95
2019-04-30T11:43:15.334Z,7.78
2019-04-30T11:48:48.888Z,4.45
2019-04-30T11:51:21.125Z,5.22
2019-04-30T11:53:54.293Z,5.72
2019-04-30T11:56:26.173Z,3.62
2019-04-30T11:58:58.977Z,7.92
2019-04-30T12:01:32.432Z,23.55
2019-04-30T12:04:04.923Z,7.95
2019-04-30T12:06:37.133Z,6.05
2019-04-30T12:11:55.383Z,6.40
2019-04-30T12:14:29.631Z,9.80
2019-04-30T12:17:02.603Z,7.40
2019-04-30T12:22:05.724Z,4.22
2019-04-30T12:24:38.824Z,5.42
2019-04-30T12:27:12.374Z,4.60
2019-04-30T12:29:49.551Z,4.33
2019-04-30T12:32:22.753Z,4.17
2019-04-30T12:34:59.297Z,5.87
2019-04-30T12:37:39.503Z,5.12
2019-04-30T12:40:25.861Z,9.38
2019-04-30T12:42:48.893Z,6.55
2019-04-30T12:45:22.001Z,8.75
2019-04-30T12:47:57.981Z,6.28
2019-04-30T12:50:40.773Z,8.78
2019-04-30T12:53:18.875Z,8.40
2019-04-30T12:56:27.163Z,7.53
2019-04-30T12:58:57.014Z,8.50
2019-04-30T13:06:36.145Z,5.72
2019-04-30T13:09:13.373Z,7.92
2019-04-30T13:11:46.745Z,9.35
2019-04-30T13:14:20.499Z,10.43
2019-04-30T13:16:52.855Z,9.45
2019-04-30T13:19:25.015Z,6.83
2019-04-30T13:21:58.656Z,6.95
2019-04-30T13:24:37.743Z,7.15
2019-04-30T13:27:10.913Z,8.73
2019-04-30T13:29:51.793Z,9.23
2019-04-30T13:32:30.092Z,5.70
2019-04-30T13:35:00.953Z,13.05
2019-04-30T13:37:54.523Z,7.70
2019-04-30T13:40:49.049Z,6.58
2019-04-30T13:43:41.633Z,9.00
2019-04-30T13:46:13.693Z,9.15
2019-04-30T13:51:18.293Z,11.08
2019-04-30T13:53:53.463Z,7.30
2019-04-30T13:56:25.462Z,6.95
2019-04-30T13:58:58.633Z,9.73
2019-04-30T14:04:21.284Z,8.13
2019-04-30T14:07:18.993Z,6.75
2019-04-30T14:09:52.486Z,6.62
2019-04-30T14:12:24.982Z,10.30
2019-04-30T14:14:57.043Z,9.43
2019-04-30T14:20:01.654Z,8.53
2019-04-30T14:22:35.093Z,9.55
2019-04-30T14:25:10.274Z,10.65
2019-04-30T14:27:51.834Z,9.30
2019-04-30T14:30:16.861Z,10.25
2019-04-30T14:32:50.735Z,8.08
2019-04-30T14:35:23.353Z,7.97
2019-04-30T14:37:55.356Z,7.15
2019-04-30T14:43:12.572Z,8.93
2019-04-30T14:46:03.960Z,9.93
2019-04-30T14:48:43.024Z,8.45
2019-04-30T14:51:16.484Z,7.95
2019-04-30T14:56:59.444Z,6.72
2019-04-30T15:00:01.985Z,8.65
2019-04-30T15:02:39.873Z,9.60
2019-04-30T15:05:12.315Z,7.03
2019-04-30T15:07:44.464Z,7.65
2019-04-30T15:12:50.185Z,7.35
2019-04-30T15:15:22.573Z,9.80
2019-04-30T15:17:54.514Z,8.00
2019-04-30T15:20:26.883Z,9.13
2019-04-30T15:23:19.104Z,9.70
2019-04-30T15:25:50.327Z,6.35
2019-04-30T15:28:22.363Z,8.58
2019-04-30T15:30:54.333Z,11.00
2019-04-30T15:33:45.273Z,7.75
2019-04-30T15:36:19.250Z,8.75
2019-04-30T15:39:09.054Z,6.72
2019-04-30T15:41:44.213Z,8.48
2019-04-30T15:44:16.373Z,10.30
2019-04-30T15:49:22.622Z,12.65
2019-04-30T15:51:55.284Z,8.75
2019-04-30T15:54:29.245Z,7.35
2019-04-30T15:57:01.843Z,9.60
2019-04-30T15:59:44.133Z,10.88
2019-04-30T16:02:35.673Z,7.97
2019-04-30T16:05:25.373Z,8.23
2019-04-30T16:08:08.895Z,14.00
2019-04-30T16:11:08.108Z,8.90
2019-04-30T16:13:58.588Z,8.10
2019-04-30T16:16:35.034Z,10.50
2019-04-30T16:19:09.156Z,7.97
2019-04-30T16:21:41.393Z,10.60
2019-04-30T16:24:13.493Z,9.28
2019-04-30T16:29:19.774Z,11.12
2019-04-30T16:31:51.844Z,7.65
2019-04-30T16:34:24.343Z,8.80
2019-04-30T16:36:59.049Z,11.68
2019-04-30T16:39:31.113Z,9.70
2019-04-30T16:42:03.055Z,12.05
2019-04-30T16:44:35.164Z,8.08
2019-04-30T16:47:14.645Z,7.20
2019-04-30T16:49:46.419Z,13.38
2019-04-30T16:52:19.122Z,9.03
2019-04-30T16:54:51.173Z,11.48
2019-04-30T16:57:23.195Z,11.88
2019-04-30T16:59:55.264Z,9.73
2019-04-30T17:02:29.697Z,10.78
2019-04-30T17:05:23.474Z,9.65
2019-04-30T17:08:09.417Z,10.40
2019-04-30T17:11:15.632Z,12.95
2019-04-30T17:13:54.144Z,14.95
2019-04-30T17:16:26.274Z,9.03
2019-04-30T17:21:30.934Z,9.93
2019-04-30T17:24:03.386Z,10.13
2019-04-30T17:26:36.072Z,13.55
2019-04-30T17:29:09.608Z,12.98
2019-04-30T17:31:41.796Z,13.80
2019-04-30T17:34:14.004Z,15.78
2019-04-30T17:36:46.233Z,18.32
2019-04-30T17:41:51.983Z,29.55
2019-04-30T17:46:54.743Z,35.88
2019-04-30T17:49:30.954Z,26.00
2019-04-30T17:52:02.973Z,16.02
2019-04-30T17:54:36.006Z,15.28
2019-04-30T17:59:40.714Z,11.97
2019-04-30T18:02:14.603Z,12.03
2019-04-30T18:04:47.144Z,13.22
2019-04-30T18:09:54.345Z,14.98
2019-04-30T18:12:27.007Z,15.95
2019-04-30T18:15:00.027Z,9.50
2019-04-30T18:17:32.153Z,12.85
2019-04-30T18:20:16.593Z,8.88
2019-04-30T18:23:13.804Z,10.28
2019-04-30T18:25:49.844Z,12.45
2019-04-30T18:28:22.034Z,11.10
2019-04-30T18:30:54.273Z,10.40
2019-04-30T18:35:59.682Z,12.63
2019-04-30T18:38:32.813Z,13.38
2019-04-30T18:43:38.518Z,16.12
2019-04-30T18:46:11.013Z,11.53
2019-04-30T18:48:43.183Z,12.58
2019-04-30T18:51:30.610Z,13.83
2019-04-30T18:53:49.613Z,16.77
2019-04-30T18:56:22.145Z,13.18
2019-04-30T18:58:54.323Z,12.20
2019-04-30T19:01:26.792Z,10.55
2019-04-30T19:04:01.177Z,14.38
2019-04-30T19:06:33.215Z,13.13
2019-04-30T19:12:43.297Z,16.97
2019-04-30T19:15:59.137Z,15.45
2019-04-30T19:18:36.633Z,13.68
2019-04-30T19:21:10.003Z,15.53
2019-04-30T19:23:42.634Z,10.72
2019-04-30T19:26:16.343Z,14.47
2019-04-30T19:33:52.364Z,19.95
2019-04-30T19:36:36.520Z,14.18
2019-04-30T19:38:59.782Z,17.50
2019-04-30T19:41:32.298Z,28.05
2019-04-30T19:46:35.904Z,20.95
2019-04-30T19:49:09.817Z,20.72
2019-04-30T19:51:42.013Z,21.57
2019-04-30T19:54:13.943Z,22.45
2019-04-30T19:56:46.174Z,29.18
2019-04-30T19:59:19.363Z,21.33
2019-04-30T20:01:51.605Z,30.17
2019-04-30T20:04:33.195Z,24.55
2019-04-30T20:06:59.128Z,23.90
2019-04-30T20:09:31.552Z,26.42
2019-04-30T20:12:03.721Z,28.62
2019-04-30T20:14:36.734Z,27.32
2019-04-30T20:17:09.006Z,29.23
2019-04-30T20:19:41.053Z,39.60
2019-04-30T20:22:13.582Z,32.28
2019-04-30T20:24:46.283Z,79.87
2019-04-30T20:27:19.058Z,81.25
2019-04-30T20:29:52.245Z,48.55
2019-04-30T20:32:33.901Z,42.83
2019-04-30T20:34:59.787Z,34.00
2019-04-30T20:37:31.923Z,32.58
2019-04-30T20:42:41.473Z,29.77
2019-04-30T20:45:13.634Z,31.82
2019-04-30T20:47:45.755Z,26.02
2019-04-30T20:52:49.083Z,29.37
2019-04-30T20:55:22.299Z,36.38
2019-04-30T21:00:25.955Z,36.42
2019-04-30T21:02:59.827Z,44.08
2019-04-30T21:05:31.945Z,39.18
2019-04-30T21:08:04.192Z,53.28
2019-04-30T21:10:36.563Z,50.20
2019-04-30T21:13:10.935Z,50.25
2019-04-30T21:15:43.583Z,42.27
2019-04-30T21:18:15.773Z,56.40
2019-04-30T21:20:49.672Z,59.53
2019-04-30T21:23:22.754Z,49.70
2019-04-30T21:25:55.223Z,60.98
2019-04-30T21:28:29.526Z,61.23
2019-04-30T21:31:19.733Z,52.45
2019-04-30T21:33:54.353Z,57.13
2019-04-30T21:36:28.503Z,49.73
2019-04-30T21:39:00.683Z,57.70
2019-04-30T21:41:34.360Z,63.48
2019-04-30T21:44:06.413Z,53.83
2019-04-30T21:49:10.883Z,63.28
2019-04-30T21:51:42.843Z,50.78
2019-04-30T21:54:14.990Z,49.75
2019-04-30T21:56:47.026Z,47.23
2019-04-30T21:59:24.637Z,44.38
2019-04-30T22:01:52.793Z,44.65
2019-04-30T22:06:55.873Z,56.37
2019-04-30T22:09:30.332Z,36.58
2019-04-30T22:12:02.355Z,40.20
2019-04-30T22:14:39.201Z,52.75
2019-04-30T22:17:10.893Z,41.08
2019-04-30T22:19:44.263Z,55.17
2019-04-30T22:24:47.353Z,42.43
2019-04-30T22:27:20.033Z,39.53
2019-04-30T22:32:23.351Z,38.90
2019-04-30T22:47:18.637Z,127.50
2019-04-30T22:50:22.813Z,107.70
2019-04-30T22:53:28.591Z,146.57
2019-04-30T22:56:05.993Z,91.00
2019-04-30T22:58:38.783Z,80.05
2019-04-30T23:04:04.043Z,68.15
2019-04-30T23:06:36.222Z,80.80
2019-04-30T23:09:11.673Z,75.65
2019-04-30T23:11:43.699Z,82.27
2019-04-30T23:14:16.023Z,68.70
2019-04-30T23:16:48.106Z,78.10
2019-04-30T23:19:20.063Z,62.73
2019-04-30T23:21:52.134Z,68.17
2019-04-30T23:24:24.273Z,65.80
2019-04-30T23:26:56.213Z,67.87
2019-04-30T23:29:28.333Z,68.50
2019-04-30T23:32:00.223Z,52.65
2019-04-30T23:34:32.164Z,52.33
2019-04-30T23:37:04.677Z,51.88
2019-04-30T23:39:36.618Z,53.08
2019-04-30T23:44:39.613Z,47.00
2019-04-30T23:47:11.723Z,69.62
2019-04-30T23:52:14.613Z,40.38
2019-04-30T23:54:46.632Z,45.25
2019-04-30T23:57:18.702Z,45.58
